• vieta
  • image
  • image
  • image
mod_vvisit_countermod_vvisit_countermod_vvisit_countermod_vvisit_countermod_vvisit_countermod_vvisit_counter
mod_vvisit_counterŠiandien860
mod_vvisit_counterVakar562
mod_vvisit_counterŠią savaitę3907
mod_vvisit_counterPraėjusią savaitę6262
mod_vvisit_counterŠį mėnesį22785
mod_vvisit_counterPraėjusį mėnesį35742
mod_vvisit_counterViso661143

Mes turime: 83 svečius, 3 bots online
Jūsų IP: 54.198.118.102
 , 
Šiandien: Geg 26, 2017
Oro uostas / Įmonė

Apie įmonę

 

Savivaldybės įmonė Šiaulių oro uostas.

2003 m. lapkričio mėn. Šiaulių miesto savivaldybės tarybos sprendimu įsteigta Savivaldybės įmonė Šiaulių oro uostas, kuriai LR Vyriausybės nutarimu suteikta teisė aptarnauti civilinį susisiekimą kariniame Šiaulių aerodrome.

Įmonė yra ribotos civilinės atsakomybės viešasis juridinis asmuo.

Įmonės pagrindinė veikla – oro uosto eksploatavimas ir oro transporto paslaugos.

Svarbiausi veiklos uždaviniai – teikti viešąsias keleivių ir krovinių vežimo oro transportu paslaugas.

Įmonėje dirba 25 darbuotojai.


Įmonės struktūra:

 

Šiandien

Penktadienis, 26 Gegužė 2017

Orų prognozė

Šiauliai °C
   

Orų prognozė aviacijai

[source: ADDS]
METAR
EYSA 261850Z 01004KT CAVOK 13/07 Q1018 BLU NOSIG =
TAF
TAF EYSA 261700Z 2618/2703 04006KT 9000 BKN030 TEMPO 2700/2703 2000 BR BKN006 =
SR / SS: 02:02 / 18:47 UTC (EYSA 2017-05-26)

Paieška

Lankytojai

Mes turime 86 svečius online

tic logo lt